createdAt,value
2018-04-07T00:01:26.320Z,6.30
2018-04-07T00:03:54.347Z,5.73
2018-04-07T00:06:22.403Z,6.57
2018-04-07T00:08:50.432Z,6.97
2018-04-07T00:11:18.564Z,6.63
2018-04-07T00:13:46.592Z,6.70
2018-04-07T00:16:14.632Z,6.57
2018-04-07T00:18:42.655Z,6.67
2018-04-07T00:21:10.699Z,6.30
2018-04-07T00:23:39.495Z,6.70
2018-04-07T00:26:07.535Z,6.97
2018-04-07T00:28:35.571Z,7.00
2018-04-07T00:31:03.608Z,6.70
2018-04-07T00:33:32.411Z,7.07
2018-04-07T00:36:00.448Z,6.80
2018-04-07T00:38:28.541Z,6.53
2018-04-07T00:40:57.325Z,7.50
2018-04-07T00:43:26.129Z,7.20
2018-04-07T00:45:54.933Z,7.37
2018-04-07T00:48:22.982Z,7.17
2018-04-07T00:50:51.054Z,7.27
2018-04-07T00:53:19.872Z,7.30
2018-04-07T00:55:48.673Z,7.77
2018-04-07T00:58:16.720Z,7.43
2018-04-07T01:00:44.766Z,7.87
2018-04-07T01:03:12.846Z,7.30
2018-04-07T01:05:40.896Z,8.07
2018-04-07T01:08:08.940Z,8.03
2018-04-07T01:10:36.981Z,8.03
2018-04-07T01:13:05.033Z,7.93
2018-04-07T01:15:33.071Z,6.87
2018-04-07T01:18:01.121Z,7.83
2018-04-07T01:20:29.289Z,7.70
2018-04-07T01:22:57.317Z,7.87
2018-04-07T01:25:25.367Z,7.57
2018-04-07T01:27:53.409Z,7.53
2018-04-07T01:30:21.453Z,8.20
2018-04-07T01:32:49.497Z,8.33
2018-04-07T01:35:17.534Z,8.10
2018-04-07T01:37:46.458Z,7.90
2018-04-07T01:40:14.509Z,8.17
2018-04-07T01:42:42.551Z,8.50
2018-04-07T01:45:11.365Z,8.30
2018-04-07T01:47:40.173Z,7.97
2018-04-07T01:50:08.987Z,7.50
2018-04-07T01:52:37.782Z,7.87
2018-04-07T01:55:05.825Z,7.70
2018-04-07T01:57:33.873Z,8.30
2018-04-07T02:00:01.921Z,8.37
2018-04-07T02:02:29.985Z,8.00
2018-04-07T02:04:58.829Z,8.20
2018-04-07T02:07:26.853Z,8.60
2018-04-07T02:09:54.897Z,8.40
2018-04-07T02:12:23.717Z,8.40
2018-04-07T02:14:52.640Z,8.10
2018-04-07T02:17:20.681Z,8.73
2018-04-07T02:19:48.729Z,8.17
2018-04-07T02:22:16.772Z,7.83
2018-04-07T02:24:44.834Z,8.17
2018-04-07T02:27:12.870Z,7.53
2018-04-07T02:29:41.145Z,8.20
2018-04-07T02:32:09.188Z,7.63
2018-04-07T02:34:37.219Z,8.17
2018-04-07T02:37:05.280Z,8.07
2018-04-07T02:39:33.317Z,8.40
2018-04-07T02:42:01.360Z,8.30
2018-04-07T02:44:29.398Z,8.30
2018-04-07T02:46:57.446Z,7.77
2018-04-07T02:49:25.512Z,7.47
2018-04-07T02:51:54.303Z,7.70
2018-04-07T02:54:23.099Z,7.80
2018-04-07T02:56:51.910Z,7.73
2018-04-07T02:59:20.747Z,7.57
2018-04-07T03:01:48.897Z,7.83
2018-04-07T03:04:17.039Z,7.60
2018-04-07T03:06:45.846Z,7.67
2018-04-07T03:09:14.647Z,8.27
2018-04-07T03:11:42.688Z,8.17
2018-04-07T03:14:10.734Z,7.97
2018-04-07T03:16:39.542Z,7.63
2018-04-07T03:19:07.588Z,8.07
2018-04-07T03:21:35.622Z,7.70
2018-04-07T03:24:03.679Z,7.57
2018-04-07T03:26:31.846Z,8.23
2018-04-07T03:28:59.967Z,8.10
2018-04-07T03:31:28.013Z,7.63
2018-04-07T03:33:56.053Z,8.37
2018-04-07T03:36:24.947Z,7.43
2018-04-07T03:38:52.998Z,8.20
2018-04-07T03:41:21.029Z,8.10
2018-04-07T03:43:49.077Z,8.20
2018-04-07T03:46:17.117Z,7.70
2018-04-07T03:48:45.928Z,7.30
2018-04-07T03:51:13.969Z,8.10
2018-04-07T03:53:42.017Z,7.40
2018-04-07T03:56:10.063Z,7.90
2018-04-07T03:58:38.869Z,7.57
2018-04-07T04:01:07.669Z,7.73
2018-04-07T04:03:35.726Z,7.20
2018-04-07T04:06:03.768Z,7.97
2018-04-07T04:08:32.726Z,7.33
2018-04-07T04:11:00.805Z,7.70
2018-04-07T04:13:28.853Z,7.93
2018-04-07T04:15:56.894Z,7.90
2018-04-07T04:18:24.929Z,7.53
2018-04-07T04:20:52.981Z,8.50
2018-04-07T04:23:21.818Z,7.43
2018-04-07T04:25:50.594Z,8.83
2018-04-07T04:28:19.406Z,8.07
2018-04-07T04:30:47.456Z,7.57
2018-04-07T04:33:15.493Z,8.30
2018-04-07T04:35:44.304Z,7.67
2018-04-07T04:40:48.238Z,7.73
2018-04-07T04:43:16.281Z,7.60
2018-04-07T04:45:44.325Z,8.33
2018-04-07T04:48:12.365Z,8.90
2018-04-07T04:50:40.413Z,8.20
2018-04-07T04:53:08.504Z,7.70
2018-04-07T04:55:36.553Z,8.50
2018-04-07T04:58:04.589Z,8.77
2018-04-07T05:00:32.738Z,8.90
2018-04-07T05:03:00.773Z,8.30
2018-04-07T05:05:29.589Z,8.77
2018-04-07T05:07:58.397Z,7.83
2018-04-07T05:10:27.770Z,9.00
2018-04-07T05:12:55.841Z,8.67
2018-04-07T05:15:23.877Z,8.30
2018-04-07T05:17:51.934Z,7.90
2018-04-07T05:20:19.973Z,8.93
2018-04-07T05:22:48.031Z,9.03
2018-04-07T05:25:16.817Z,9.17
2018-04-07T05:27:45.629Z,8.47
2018-04-07T05:30:14.445Z,9.53
2018-04-07T05:32:42.493Z,9.03
2018-04-07T05:35:10.665Z,9.43
2018-04-07T05:37:39.469Z,8.67
2018-04-07T05:40:08.279Z,9.40
2018-04-07T05:42:37.105Z,9.00
2018-04-07T05:45:05.145Z,8.70
2018-04-07T05:47:33.198Z,7.97
2018-04-07T05:50:02.002Z,8.73
2018-04-07T05:52:30.817Z,8.90
2018-04-07T05:54:59.626Z,9.03
2018-04-07T05:57:27.681Z,9.10
2018-04-07T05:59:55.708Z,9.33
2018-04-07T06:02:23.766Z,9.27
2018-04-07T06:04:51.806Z,9.60
2018-04-07T06:07:19.857Z,9.17
2018-04-07T06:09:47.902Z,9.13
2018-04-07T06:12:16.791Z,9.43
2018-04-07T06:14:44.873Z,9.47
2018-04-07T06:17:12.964Z,8.90
2018-04-07T06:19:40.989Z,9.30
2018-04-07T06:22:09.041Z,8.50
2018-04-07T06:24:37.218Z,9.07
2018-04-07T06:27:06.026Z,9.70
2018-04-07T06:29:34.835Z,8.77
2018-04-07T06:32:02.881Z,9.13
2018-04-07T06:34:30.921Z,9.47
2018-04-07T06:36:58.973Z,8.83
2018-04-07T06:39:27.013Z,9.60
2018-04-07T06:41:55.101Z,9.47
2018-04-07T06:44:23.097Z,8.80
2018-04-07T06:46:51.927Z,9.73
2018-04-07T06:49:19.969Z,8.63
2018-04-07T06:51:48.022Z,8.63
2018-04-07T06:54:16.073Z,9.50
2018-04-07T06:56:44.148Z,9.07
2018-04-07T06:59:12.240Z,9.07
2018-04-07T07:01:41.041Z,9.07
2018-04-07T07:04:09.861Z,9.67
2018-04-07T07:06:37.927Z,9.40
2018-04-07T07:09:05.993Z,9.00
2018-04-07T07:11:34.044Z,10.07
2018-04-07T07:14:04.688Z,9.53
2018-04-07T07:16:32.746Z,9.13
2018-04-07T07:19:00.794Z,9.63
2018-04-07T07:21:29.609Z,9.10
2018-04-07T07:23:58.434Z,9.83
2018-04-07T07:26:27.251Z,9.93
2018-04-07T07:28:56.069Z,9.70
2018-04-07T07:31:24.122Z,10.43
2018-04-07T07:33:52.964Z,9.67
2018-04-07T07:36:21.005Z,9.90
2018-04-07T07:38:49.068Z,10.33
2018-04-07T07:41:17.882Z,9.73
2018-04-07T07:43:46.746Z,10.23
2018-04-07T07:46:15.525Z,9.87
2018-04-07T07:48:44.453Z,9.83
2018-04-07T07:51:12.505Z,10.40
2018-04-07T07:53:40.566Z,10.20
2018-04-07T07:56:08.613Z,10.70
2018-04-07T07:58:36.866Z,10.47
2018-04-07T08:01:04.919Z,9.97
2018-04-07T08:03:32.978Z,10.03
2018-04-07T08:06:01.029Z,10.60
2018-04-07T08:08:29.860Z,10.13
2018-04-07T08:10:57.916Z,11.63
2018-04-07T08:13:25.973Z,10.27
2018-04-07T08:15:54.790Z,10.90
2018-04-07T08:18:23.614Z,10.60
2018-04-07T08:20:52.460Z,11.47
2018-04-07T08:23:21.370Z,11.20
2018-04-07T08:25:49.415Z,11.27
2018-04-07T08:28:17.478Z,11.13
2018-04-07T08:30:45.530Z,11.33
2018-04-07T08:33:14.358Z,11.70
2018-04-07T08:35:43.178Z,11.47
2018-04-07T08:38:12.002Z,10.90
2018-04-07T08:40:40.058Z,11.33
2018-04-07T08:43:08.113Z,11.93
2018-04-07T08:45:36.162Z,11.40
2018-04-07T08:48:04.994Z,11.23
2018-04-07T08:50:33.816Z,11.60
2018-04-07T08:53:02.637Z,11.17
2018-04-07T08:55:31.460Z,11.37
2018-04-07T08:57:59.517Z,11.03
2018-04-07T09:00:27.601Z,11.40
2018-04-07T09:02:55.658Z,11.67
2018-04-07T09:05:23.718Z,10.83
2018-04-07T09:07:51.820Z,11.60
2018-04-07T09:10:19.869Z,11.27
2018-04-07T09:12:47.920Z,12.00
2018-04-07T09:15:15.989Z,11.53
2018-04-07T09:17:44.043Z,11.37
2018-04-07T09:20:12.871Z,12.10
2018-04-07T09:22:40.921Z,11.97
2018-04-07T09:25:08.986Z,11.87
2018-04-07T09:27:37.038Z,11.93
2018-04-07T09:30:05.869Z,12.00
2018-04-07T09:32:33.926Z,12.50
2018-04-07T09:35:01.983Z,11.70
2018-04-07T09:37:30.038Z,11.77
2018-04-07T09:39:58.100Z,12.53
2018-04-07T09:42:26.157Z,12.40
2018-04-07T09:44:54.217Z,12.70
2018-04-07T09:47:22.265Z,12.83
2018-04-07T09:49:50.332Z,12.87
2018-04-07T09:52:19.141Z,12.40
2018-04-07T09:54:47.976Z,13.30
2018-04-07T09:57:16.036Z,12.57
2018-04-07T09:59:44.143Z,13.17
2018-04-07T10:02:17.654Z,12.33
2018-04-07T10:04:45.717Z,13.27
2018-04-07T10:07:13.769Z,13.10
2018-04-07T10:09:42.604Z,13.40
2018-04-07T10:12:10.654Z,13.17
2018-04-07T10:14:38.785Z,14.13
2018-04-07T10:17:07.612Z,13.43
2018-04-07T10:19:35.668Z,13.00
2018-04-07T10:22:03.725Z,13.30
2018-04-07T10:24:31.779Z,13.13
2018-04-07T10:26:59.825Z,13.73
2018-04-07T10:29:27.904Z,13.40
2018-04-07T10:31:55.950Z,13.50
2018-04-07T10:34:24.011Z,13.27
2018-04-07T10:36:52.098Z,13.57
2018-04-07T10:39:20.162Z,13.07
2018-04-07T10:41:49.137Z,14.17
2018-04-07T10:44:17.222Z,13.60
2018-04-07T10:46:45.297Z,13.43
2018-04-07T10:49:13.381Z,13.63
2018-04-07T10:51:41.450Z,13.50
2018-04-07T10:54:09.511Z,13.53
2018-04-07T10:56:37.580Z,13.33
2018-04-07T10:59:06.414Z,14.07
2018-04-07T11:01:35.242Z,14.00
2018-04-07T11:04:04.068Z,14.80
2018-04-07T11:06:32.905Z,14.30
2018-04-07T11:09:00.987Z,14.47
2018-04-07T11:11:29.053Z,13.33
2018-04-07T11:13:57.125Z,14.13
2018-04-07T11:16:25.966Z,13.90
2018-04-07T11:18:54.038Z,13.77
2018-04-07T11:21:22.109Z,14.57
2018-04-07T11:23:50.178Z,13.27
2018-04-07T11:26:19.110Z,13.70
2018-04-07T11:28:47.910Z,13.70
2018-04-07T11:31:17.256Z,14.00
2018-04-07T11:33:45.324Z,14.27
2018-04-07T11:36:13.384Z,14.63
2018-04-07T11:38:42.592Z,14.20
2018-04-07T11:41:10.661Z,15.03
2018-04-07T11:43:38.730Z,15.10
2018-04-07T11:46:06.998Z,13.73
2018-04-07T11:48:35.080Z,14.53
2018-04-07T11:51:03.905Z,14.37
2018-04-07T11:53:32.774Z,16.97
2018-04-07T11:56:00.834Z,15.37
2018-04-07T11:58:29.653Z,15.73
2018-04-07T12:00:57.796Z,15.00
2018-04-07T12:03:26.774Z,15.40
2018-04-07T12:05:54.842Z,16.33
2018-04-07T12:08:23.678Z,23.70
2018-04-07T12:10:52.510Z,15.30
2018-04-07T12:13:20.561Z,15.97
2018-04-07T12:15:48.641Z,15.33
2018-04-07T12:18:16.717Z,20.80
2018-04-07T12:20:44.766Z,15.80
2018-04-07T12:23:13.602Z,16.03
2018-04-07T12:25:41.669Z,16.10
2018-04-07T12:28:10.485Z,16.97
2018-04-07T12:30:38.624Z,15.43
2018-04-07T12:33:06.681Z,25.07
2018-04-07T12:35:34.889Z,16.00
2018-04-07T12:38:03.749Z,12.50
2018-04-07T12:40:31.799Z,15.65
2018-04-07T12:43:00.614Z,15.15
2018-04-07T12:45:29.442Z,14.05
2018-04-07T12:47:58.266Z,14.50
2018-04-07T12:50:26.350Z,14.13
2018-04-07T12:52:54.424Z,14.38
2018-04-07T12:55:22.470Z,14.52
2018-04-07T12:57:50.662Z,15.23
2018-04-07T13:00:18.717Z,15.05
2018-04-07T13:02:46.814Z,15.52
2018-04-07T13:05:14.872Z,15.75
2018-04-07T13:07:42.922Z,16.10
2018-04-07T13:10:11.757Z,15.38
2018-04-07T13:12:39.819Z,15.95
2018-04-07T13:15:07.885Z,16.80
2018-04-07T13:17:36.051Z,16.75
2018-04-07T13:20:04.880Z,15.45
2018-04-07T13:22:32.930Z,15.88
2018-04-07T13:25:01.001Z,14.25
2018-04-07T13:27:29.094Z,12.90
2018-04-07T13:29:57.154Z,15.32
2018-04-07T13:32:25.224Z,15.38
2018-04-07T13:34:53.278Z,14.80
2018-04-07T13:37:21.416Z,14.80
2018-04-07T13:39:49.477Z,14.05
2018-04-07T13:42:17.531Z,14.38
2018-04-07T13:44:45.702Z,14.32
2018-04-07T13:47:13.761Z,14.13
2018-04-07T13:49:41.833Z,14.18
2018-04-07T13:52:09.891Z,14.15
2018-04-07T13:54:38.724Z,13.80
2018-04-07T13:57:07.557Z,13.90
2018-04-07T13:59:35.630Z,11.75
2018-04-07T14:02:04.462Z,12.63
2018-04-07T14:04:32.536Z,13.73
2018-04-07T14:07:00.603Z,13.32
2018-04-07T14:09:28.657Z,12.60
2018-04-07T14:11:56.725Z,12.37
2018-04-07T14:14:24.835Z,12.13
2018-04-07T14:16:53.676Z,11.95
2018-04-07T14:19:21.727Z,9.38
2018-04-07T14:21:49.801Z,7.95
2018-04-07T14:24:17.853Z,8.07
2018-04-07T14:26:46.462Z,6.60
2018-04-07T14:29:14.510Z,7.40
2018-04-07T14:31:42.565Z,5.43
2018-04-07T14:34:11.387Z,4.18
2018-04-07T14:36:39.581Z,4.93
2018-04-07T14:39:07.631Z,3.85
2018-04-07T14:41:35.699Z,3.67
2018-04-07T14:44:03.745Z,5.40
2018-04-07T14:46:32.565Z,7.55
2018-04-07T14:49:01.531Z,3.42
2018-04-07T14:51:29.582Z,3.58
2018-04-07T14:53:58.414Z,4.37
2018-04-07T14:56:26.473Z,3.78
2018-04-07T14:58:54.532Z,3.90
2018-04-07T15:01:22.601Z,3.58
2018-04-07T15:03:50.655Z,4.30
2018-04-07T15:06:18.776Z,6.78
2018-04-07T15:08:47.109Z,6.28
2018-04-07T15:11:15.149Z,6.03
2018-04-07T15:13:43.222Z,6.03
2018-04-07T15:16:11.268Z,7.20
2018-04-07T15:18:40.104Z,7.12
2018-04-07T15:21:08.930Z,5.72
2018-04-07T15:23:37.026Z,2.95
2018-04-07T15:26:05.817Z,2.65
2018-04-07T15:28:34.666Z,2.45
2018-04-07T15:31:03.466Z,2.55
2018-04-07T15:33:31.540Z,2.53
2018-04-07T15:35:59.605Z,2.20
2018-04-07T15:38:27.660Z,2.30
2018-04-07T15:40:56.501Z,13.20
2018-04-07T15:43:24.554Z,2.50
2018-04-07T15:45:53.386Z,2.30
2018-04-07T15:48:21.473Z,2.70
2018-04-07T15:50:49.866Z,2.92
2018-04-07T15:53:18.674Z,2.60
2018-04-07T15:55:46.801Z,2.67
2018-04-07T15:58:14.845Z,2.45
2018-04-07T16:00:42.925Z,2.17
2018-04-07T16:03:10.958Z,2.00
2018-04-07T16:05:39.025Z,2.10
2018-04-07T16:08:07.102Z,2.17
2018-04-07T16:10:35.902Z,4.90
2018-04-07T16:13:03.953Z,3.67
2018-04-07T16:15:32.024Z,3.85
2018-04-07T16:18:00.074Z,3.60
2018-04-07T16:20:29.636Z,2.50
2018-04-07T16:22:57.685Z,1.77
2018-04-07T16:25:25.742Z,2.10
2018-04-07T16:27:53.817Z,2.22
2018-04-07T16:30:21.948Z,3.97
2018-04-07T16:32:50.001Z,4.37
2018-04-07T16:35:18.874Z,4.18
2018-04-07T16:37:46.877Z,5.55
2018-04-07T16:40:14.929Z,5.12
2018-04-07T16:42:43.002Z,4.72
2018-04-07T16:45:11.842Z,4.57
2018-04-07T16:47:40.650Z,4.20
2018-04-07T16:50:08.722Z,3.80
2018-04-07T16:52:37.549Z,4.22
2018-04-07T16:55:05.602Z,3.72
2018-04-07T16:57:33.653Z,3.58
2018-04-07T17:00:01.719Z,3.95
2018-04-07T17:02:29.983Z,3.92
2018-04-07T17:04:58.054Z,3.90
2018-04-07T17:07:26.872Z,3.65
2018-04-07T17:09:55.693Z,3.27
2018-04-07T17:12:23.753Z,3.50
2018-04-07T17:14:51.802Z,3.40
2018-04-07T17:17:19.874Z,4.10
2018-04-07T17:19:47.957Z,3.57
2018-04-07T17:22:16.768Z,2.90
2018-04-07T17:24:44.814Z,2.70
2018-04-07T17:27:12.878Z,2.60
2018-04-07T17:29:41.706Z,2.93
2018-04-07T17:32:09.772Z,2.87
2018-04-07T17:34:37.817Z,2.70
2018-04-07T17:37:05.879Z,2.50
2018-04-07T17:39:33.929Z,2.60
2018-04-07T17:42:01.982Z,2.57
2018-04-07T17:44:30.819Z,2.60
2018-04-07T17:46:58.850Z,2.53
2018-04-07T17:49:26.913Z,2.70
2018-04-07T17:51:54.973Z,2.80
2018-04-07T17:54:23.804Z,3.00
2018-04-07T17:56:52.613Z,2.90
2018-04-07T17:59:20.757Z,2.77
2018-04-07T18:01:48.797Z,2.97
2018-04-07T18:04:16.923Z,3.60
2018-04-07T18:06:44.957Z,3.80
2018-04-07T18:09:13.018Z,3.37
2018-04-07T18:11:41.079Z,3.90
2018-04-07T18:14:09.117Z,3.27
2018-04-07T18:16:37.157Z,3.67
2018-04-07T18:19:05.217Z,4.07
2018-04-07T18:21:33.273Z,4.00
2018-04-07T18:24:02.084Z,4.00
2018-04-07T18:26:30.145Z,3.77
2018-04-07T18:28:58.197Z,3.80
2018-04-07T18:31:27.022Z,3.73
2018-04-07T18:33:55.069Z,3.97
2018-04-07T18:36:23.889Z,4.20
2018-04-07T18:38:51.951Z,3.50
2018-04-07T18:41:20.011Z,3.10
2018-04-07T18:43:48.830Z,2.83
2018-04-07T18:46:16.916Z,3.83
2018-04-07T18:48:45.034Z,3.73
2018-04-07T18:51:13.078Z,3.90
2018-04-07T18:53:41.133Z,3.83
2018-04-07T18:56:09.265Z,4.60
2018-04-07T18:58:37.321Z,4.30
2018-04-07T19:01:05.369Z,4.50
2018-04-07T19:03:33.424Z,4.80
2018-04-07T19:06:01.469Z,4.43
2018-04-07T19:08:29.535Z,4.53
2018-04-07T19:10:57.621Z,4.67
2018-04-07T19:13:26.426Z,4.67
2018-04-07T19:15:54.477Z,4.87
2018-04-07T19:18:22.537Z,4.93
2018-04-07T19:20:50.600Z,5.40
2018-04-07T19:23:19.438Z,4.60
2018-04-07T19:25:47.502Z,4.70
2018-04-07T19:28:15.629Z,4.87
2018-04-07T19:30:43.729Z,5.13
2018-04-07T19:33:11.734Z,4.70
2018-04-07T19:35:39.798Z,4.47
2018-04-07T19:38:08.626Z,4.90
2018-04-07T19:40:37.457Z,4.90
2018-04-07T19:43:05.554Z,4.87
2018-04-07T19:45:33.601Z,4.60
2018-04-07T19:48:01.661Z,5.63
2018-04-07T19:50:29.726Z,5.30
2018-04-07T19:52:58.546Z,5.20
2018-04-07T19:55:27.361Z,4.73
2018-04-07T19:57:56.195Z,5.40
2018-04-07T20:00:24.263Z,4.90
2018-04-07T20:02:53.116Z,5.43
2018-04-07T20:05:21.173Z,4.67
2018-04-07T20:07:50.008Z,4.73
2018-04-07T20:10:18.058Z,5.10
2018-04-07T20:12:46.125Z,4.97
2018-04-07T20:15:14.168Z,5.00
2018-04-07T20:17:42.312Z,4.77
2018-04-07T20:20:10.360Z,4.97
2018-04-07T20:22:38.418Z,4.77
2018-04-07T20:25:06.457Z,4.90
2018-04-07T20:27:34.515Z,5.37
2018-04-07T20:30:02.562Z,5.00
2018-04-07T20:32:31.391Z,5.30
2018-04-07T20:35:00.220Z,4.93
2018-04-07T20:37:28.269Z,4.73
2018-04-07T20:39:56.342Z,4.80
2018-04-07T20:42:28.212Z,5.53
2018-04-07T20:44:56.276Z,5.20
2018-04-07T20:47:25.089Z,5.30
2018-04-07T20:49:53.910Z,5.33
2018-04-07T20:52:22.727Z,5.10
2018-04-07T20:54:51.746Z,5.77
2018-04-07T20:57:19.737Z,5.60
2018-04-07T20:59:48.577Z,5.87
2018-04-07T21:02:16.624Z,5.77
2018-04-07T21:04:44.665Z,5.17
2018-04-07T21:07:12.725Z,5.47
2018-04-07T21:09:40.849Z,5.57
2018-04-07T21:12:08.906Z,5.20
2018-04-07T21:14:36.949Z,5.57
2018-04-07T21:17:05.041Z,5.73
2018-04-07T21:19:33.089Z,5.70
2018-04-07T21:22:01.149Z,5.40
2018-04-07T21:24:29.193Z,5.77
2018-04-07T21:26:58.025Z,5.90
2018-04-07T21:29:26.833Z,6.40
2018-04-07T21:31:55.657Z,6.40
2018-04-07T21:34:24.490Z,6.00
2018-04-07T21:36:53.485Z,6.30
2018-04-07T21:39:21.544Z,7.00
2018-04-07T21:41:49.626Z,7.00
2018-04-07T21:44:17.685Z,6.13
2018-04-07T21:46:46.493Z,6.70
2018-04-07T21:49:15.336Z,6.37
2018-04-07T21:51:43.385Z,6.30
2018-04-07T21:54:11.450Z,5.80
2018-04-07T21:56:39.502Z,6.97
2018-04-07T21:59:08.341Z,6.50
2018-04-07T22:01:36.432Z,6.90
2018-04-07T22:04:05.238Z,7.40
2018-04-07T22:06:34.045Z,6.60
2018-04-07T22:09:02.866Z,6.60
2018-04-07T22:11:31.693Z,6.83
2018-04-07T22:13:59.757Z,7.40
2018-04-07T22:16:27.880Z,6.33
2018-04-07T22:18:56.701Z,6.43
2018-04-07T22:21:25.519Z,6.60
2018-04-07T22:23:53.585Z,6.37
2018-04-07T22:26:21.657Z,6.23
2018-04-07T22:28:49.697Z,6.50
2018-04-07T22:31:18.517Z,6.23
2018-04-07T22:33:47.338Z,6.20
2018-04-07T22:36:15.385Z,6.77
2018-04-07T22:38:43.453Z,6.53
2018-04-07T22:41:11.519Z,6.43
2018-04-07T22:43:40.339Z,6.90
2018-04-07T22:46:08.393Z,6.67
2018-04-07T22:48:36.453Z,6.60
2018-04-07T22:51:04.533Z,7.10
2018-04-07T22:53:32.591Z,6.60
2018-04-07T22:56:00.637Z,6.47
2018-04-07T22:58:28.734Z,6.90
2018-04-07T23:00:57.533Z,6.83
2018-04-07T23:03:26.365Z,6.33
2018-04-07T23:05:54.409Z,6.70
2018-04-07T23:08:22.485Z,7.80
2018-04-07T23:10:50.582Z,6.77
2018-04-07T23:13:18.630Z,6.90
2018-04-07T23:15:47.450Z,6.90
2018-04-07T23:18:16.293Z,7.20
2018-04-07T23:20:44.354Z,7.77
2018-04-07T23:23:13.169Z,7.63
2018-04-07T23:25:41.994Z,7.20
2018-04-07T23:28:10.817Z,7.37
2018-04-07T23:30:38.888Z,7.77
2018-04-07T23:33:06.933Z,7.57
2018-04-07T23:35:34.993Z,7.87
2018-04-07T23:38:03.057Z,7.90
2018-04-07T23:40:31.897Z,8.07
2018-04-07T23:42:59.962Z,7.83
2018-04-07T23:45:28.031Z,7.77
2018-04-07T23:47:56.105Z,7.87
2018-04-07T23:50:24.921Z,7.77
2018-04-07T23:52:52.985Z,7.70
2018-04-07T23:55:21.050Z,8.10
2018-04-07T23:57:49.139Z,7.90
